Time;durP1;ratioP1;P1;durP2;ratioP2;P2;SDS_P1;SDS_P2;PMS_P1;PMS_P2;Temp;Humidity;BMP_temperature;BMP_pressure;BME280_temperature;BME280_humidity;BME280_pressure;Samples;Min_cycle;Max_cycle;Signal;HPM_P1;HPM_P2
2022/07/27 00:01:47;;;;;;;1.75;1.20;;;24.00;37.70;;;;;;20522;6840;299492;-85
2022/07/27 00:04:12;;;;;;;2.30;1.10;;;24.20;38.00;;;;;;20730;6840;121262;-85
2022/07/27 00:06:38;;;;;;;1.42;1.33;;;24.10;37.80;;;;;;20523;6840;308063;-85
2022/07/27 00:09:04;;;;;;;1.97;1.57;;;24.20;38.10;;;;;;20704;6840;117855;-86
2022/07/27 00:11:29;;;;;;;1.23;1.12;;;24.10;38.10;;;;;;20738;6840;118582;-86
2022/07/27 00:13:57;;;;;;;3.03;1.57;;;23.80;38.30;;;;;;20735;6840;118839;-86
2022/07/27 00:16:23;;;;;;;1.77;1.40;;;23.60;38.60;;;;;;20727;6840;121042;-85
2022/07/27 00:18:49;;;;;;;1.50;1.40;;;23.60;39.30;;;;;;20513;6838;340717;-85
2022/07/27 00:21:15;;;;;;;2.60;1.37;;;23.60;39.30;;;;;;20733;6840;117366;-85
2022/07/27 00:23:40;;;;;;;2.55;1.50;;;23.60;39.00;;;;;;20528;6840;330233;-86
2022/07/27 00:26:07;;;;;;;2.27;1.50;;;23.80;39.20;;;;;;20734;6840;117623;-85
2022/07/27 00:28:32;;;;;;;1.87;1.37;;;23.70;39.00;;;;;;20696;6840;117768;-86
2022/07/27 00:30:58;;;;;;;1.83;1.50;;;23.60;39.20;;;;;;20498;6840;335744;-85
2022/07/27 00:33:23;;;;;;;1.58;1.48;;;23.70;38.90;;;;;;20486;6840;308961;-86
2022/07/27 00:35:50;;;;;;;1.75;1.50;;;24.10;38.00;;;;;;20509;6840;309356;-85
2022/07/27 00:38:16;;;;;;;2.80;1.30;;;24.40;37.60;;;;;;20740;6840;117243;-85
2022/07/27 00:40:41;;;;;;;1.87;1.50;;;24.30;37.70;;;;;;20746;6840;117237;-85
2022/07/27 00:43:07;;;;;;;1.60;1.50;;;24.00;37.70;;;;;;20506;6840;309012;-86
2022/07/27 00:45:33;;;;;;;2.55;1.60;;;24.10;37.60;;;;;;20518;6840;335219;-85
2022/07/27 00:47:58;;;;;;;2.07;1.30;;;24.50;37.30;;;;;;20733;6840;118649;-86
2022/07/27 00:50:24;;;;;;;2.78;1.42;;;24.40;37.30;;;;;;20522;6840;307626;-85
2022/07/27 00:52:49;;;;;;;1.33;1.13;;;24.50;37.30;;;;;;20717;6840;118934;-86
2022/07/27 00:55:15;;;;;;;4.93;1.77;;;24.30;37.30;;;;;;20733;6840;117352;-85
2022/07/27 00:57:40;;;;;;;1.57;1.50;;;24.00;37.70;;;;;;20720;6840;118848;-85
2022/07/27 01:00:07;;;;;;;1.67;1.45;;;23.80;38.20;;;;;;20766;6840;121276;-86
2022/07/27 01:02:32;;;;;;;2.10;1.50;;;23.60;38.50;;;;;;20778;6840;113766;-85
2022/07/27 01:04:57;;;;;;;1.30;1.20;;;23.50;38.60;;;;;;20780;6840;118149;-85
2022/07/27 01:07:23;;;;;;;2.03;1.50;;;23.30;38.60;;;;;;20785;6840;118156;-85
2022/07/27 01:09:55;;;;;;;2.17;1.50;;;23.20;38.70;;;;;;20580;6840;299479;-86
2022/07/27 01:12:20;;;;;;;3.78;1.70;;;23.50;38.90;;;;;;20580;6840;319131;-85
2022/07/27 01:14:46;;;;;;;1.40;1.30;;;23.90;38.30;;;;;;20524;6840;279663;-85
2022/07/27 01:17:12;;;;;;;2.37;1.67;;;23.90;38.00;;;;;;20732;6840;118718;-88
2022/07/27 01:19:38;;;;;;;2.03;1.70;;;23.80;38.30;;;;;;20519;6840;307995;-85
2022/07/27 01:22:03;;;;;;;1.70;1.60;;;23.90;38.80;;;;;;20524;6840;308551;-86
2022/07/27 01:24:30;;;;;;;1.73;1.58;;;24.00;38.00;;;;;;20523;6840;345527;-86
2022/07/27 01:26:56;;;;;;;2.75;1.67;;;24.20;38.00;;;;;;20499;6840;317062;-85
2022/07/27 01:29:21;;;;;;;2.57;1.50;;;24.20;37.70;;;;;;20742;6838;117585;-85
2022/07/27 01:31:47;;;;;;;1.65;1.48;;;23.90;37.80;;;;;;20525;6839;278885;-85
2022/07/27 01:34:12;;;;;;;1.87;1.70;;;23.90;38.40;;;;;;20520;6840;298386;-85
2022/07/27 01:36:38;;;;;;;1.60;1.50;;;24.00;38.30;;;;;;20518;6840;297993;-85
2022/07/27 01:39:04;;;;;;;1.50;1.40;;;24.00;38.00;;;;;;20709;6840;117283;-85
2022/07/27 01:41:29;;;;;;;1.30;1.30;;;23.80;38.10;;;;;;20731;6840;121438;-85
2022/07/27 01:43:55;;;;;;;1.60;1.50;;;23.50;38.70;;;;;;20725;6840;121250;-85
2022/07/27 01:46:20;;;;;;;1.23;1.23;;;23.20;39.10;;;;;;20732;6840;117959;-85
2022/07/27 01:48:46;;;;;;;3.17;1.70;;;23.00;39.60;;;;;;20498;6840;310359;-85
2022/07/27 01:51:11;;;;;;;3.10;1.50;;;23.10;40.00;;;;;;20522;6840;325431;-85
2022/07/27 01:53:38;;;;;;;1.47;1.40;;;23.40;39.60;;;;;;20727;6840;118432;-85
2022/07/27 01:56:07;;;;;;;1.57;1.47;;;23.30;39.50;;;;;;20726;6840;121046;-85
2022/07/27 01:58:33;;;;;;;3.37;1.60;;;23.00;39.80;;;;;;20719;6840;117207;-85
2022/07/27 02:00:59;;;;;;;1.30;1.30;;;22.80;40.30;;;;;;20705;6840;118461;-86
2022/07/27 02:03:24;;;;;;;1.70;1.60;;;22.60;40.60;;;;;;20731;6840;117449;-85
2022/07/27 02:05:50;;;;;;;3.10;1.80;;;22.40;40.70;;;;;;20508;6840;311132;-85
2022/07/27 02:08:15;;;;;;;2.70;1.63;;;22.60;40.60;;;;;;20730;6840;117246;-86
2022/07/27 02:13:07;;;;;;;2.23;1.60;;;22.90;40.40;;;;;;19903;6840;118528;-85
2022/07/27 02:15:33;;;;;;;1.80;1.70;;;22.80;40.80;;;;;;20528;6840;312495;-86
2022/07/27 02:17:58;;;;;;;1.77;1.67;;;23.00;40.50;;;;;;20715;6840;119377;-85
2022/07/27 02:20:25;;;;;;;1.73;1.57;;;22.90;40.30;;;;;;20519;6840;278515;-86
2022/07/27 02:22:50;;;;;;;1.70;1.60;;;23.00;40.10;;;;;;20714;6840;148113;-86
2022/07/27 02:25:16;;;;;;;1.70;1.60;;;23.00;40.10;;;;;;20521;6840;337614;-85
2022/07/27 02:27:41;;;;;;;1.97;1.77;;;23.10;40.20;;;;;;20721;6840;120420;-85
2022/07/27 02:30:09;;;;;;;1.80;1.70;;;22.90;40.00;;;;;;20719;6840;118839;-86
2022/07/27 02:32:34;;;;;;;1.63;1.53;;;22.70;40.30;;;;;;20726;6840;117222;-85
2022/07/27 02:35:01;;;;;;;2.20;1.70;;;22.50;40.70;;;;;;20503;6840;337826;-85
2022/07/27 02:37:27;;;;;;;2.58;2.00;;;22.90;40.40;;;;;;20518;6840;283391;-85
2022/07/27 02:39:53;;;;;;;2.45;1.90;;;23.10;40.10;;;;;;20516;6838;338521;-85
2022/07/27 02:42:19;;;;;;;1.90;1.80;;;23.10;40.10;;;;;;20520;6839;278168;-85
2022/07/27 02:44:44;;;;;;;2.17;1.87;;;23.30;40.00;;;;;;20503;6840;308510;-85
2022/07/27 02:47:11;;;;;;;1.83;1.73;;;23.40;39.80;;;;;;20523;6840;278590;-85
2022/07/27 02:49:37;;;;;;;2.20;2.00;;;23.50;39.80;;;;;;20516;6840;307978;-85
2022/07/27 02:52:03;;;;;;;2.33;1.90;;;23.50;39.70;;;;;;20511;6840;278449;-85
2022/07/27 02:54:31;;;;;;;1.90;1.80;;;23.60;39.70;;;;;;20717;6840;117260;-85
2022/07/27 02:56:54;;;;;;;1.87;1.70;;;23.20;39.80;;;;;;20698;6840;117764;-85
2022/07/27 02:59:19;;;;;;;2.20;2.10;;;22.80;40.30;;;;;;20513;6840;278923;-85
2022/07/27 03:01:45;;;;;;;1.90;1.80;;;22.80;40.70;;;;;;20732;6840;117286;-85
2022/07/27 03:04:10;;;;;;;1.97;1.87;;;22.50;40.70;;;;;;20735;6840;117817;-85
2022/07/27 03:06:36;;;;;;;2.22;1.80;;;22.20;41.10;;;;;;20513;6840;281663;-85
2022/07/27 03:09:04;;;;;;;1.83;1.73;;;22.20;41.50;;;;;;20738;6840;120128;-86
2022/07/27 03:11:30;;;;;;;2.07;1.97;;;21.90;41.80;;;;;;20722;6840;117814;-87
2022/07/27 03:13:56;;;;;;;1.90;1.80;;;21.90;41.80;;;;;;20738;6840;117228;-87
2022/07/27 03:16:21;;;;;;;2.50;2.03;;;21.60;42.10;;;;;;20732;6840;117685;-87
2022/07/27 03:18:47;;;;;;;2.47;2.28;;;21.40;42.40;;;;;;20477;6840;279707;-87
2022/07/27 03:21:13;;;;;;;2.37;2.05;;;22.10;42.50;;;;;;20510;6840;337729;-87
2022/07/27 03:23:39;;;;;;;2.50;2.17;;;22.10;42.30;;;;;;20718;6840;118425;-87
2022/07/27 03:26:04;;;;;;;2.25;2.10;;;22.00;42.10;;;;;;20502;6840;307962;-87
2022/07/27 03:28:30;;;;;;;3.08;2.37;;;22.20;42.20;;;;;;20491;6840;311400;-86
2022/07/27 03:30:57;;;;;;;2.20;2.10;;;22.50;41.60;;;;;;20496;6840;342604;-86
2022/07/27 03:33:22;;;;;;;2.50;2.30;;;22.70;41.00;;;;;;20526;6840;337204;-85
2022/07/27 03:35:48;;;;;;;3.00;2.57;;;22.80;40.70;;;;;;20511;6840;314406;-85
2022/07/27 03:38:13;;;;;;;2.50;2.40;;;22.90;40.70;;;;;;20728;6840;118307;-85
2022/07/27 03:40:40;;;;;;;2.15;2.05;;;22.60;41.00;;;;;;20522;6840;311155;-89
2022/07/27 03:43:06;;;;;;;2.90;2.00;;;22.50;41.90;;;;;;20709;6840;117343;-89
2022/07/27 03:45:31;;;;;;;2.55;2.33;;;22.40;42.10;;;;;;20507;6840;342970;-85
2022/07/27 03:47:57;;;;;;;2.20;2.10;;;22.70;41.60;;;;;;20728;6840;117301;-85
2022/07/27 03:50:22;;;;;;;3.75;2.08;;;23.00;41.40;;;;;;20535;6840;278156;-86
2022/07/27 03:52:48;;;;;;;2.93;2.30;;;23.40;40.60;;;;;;20500;6838;308383;-85
2022/07/27 03:55:14;;;;;;;2.23;2.10;;;23.80;39.70;;;;;;20731;6840;118902;-88
2022/07/27 03:57:40;;;;;;;2.70;2.50;;;23.80;39.70;;;;;;20736;6840;117160;-85
2022/07/27 04:00:07;;;;;;;2.60;2.40;;;23.70;40.00;;;;;;20528;6840;338107;-85
2022/07/27 04:02:31;;;;;;;2.47;2.27;;;23.80;39.30;;;;;;20517;6840;308924;-86
2022/07/27 04:04:57;;;;;;;2.13;2.03;;;24.20;39.00;;;;;;20714;6840;117462;-88
2022/07/27 04:07:22;;;;;;;2.20;2.10;;;24.20;39.00;;;;;;20526;6840;312686;-85
2022/07/27 04:09:48;;;;;;;2.37;2.20;;;24.40;38.70;;;;;;20733;6840;119844;-86
2022/07/27 04:12:14;;;;;;;2.27;2.03;;;24.30;38.70;;;;;;20739;6840;117781;-87
2022/07/27 04:14:39;;;;;;;2.23;2.03;;;24.10;39.00;;;;;;20733;6840;117166;-85
2022/07/27 04:17:05;;;;;;;4.40;2.47;;;23.90;39.20;;;;;;20506;6840;279160;-86
2022/07/27 04:19:30;;;;;;;2.40;2.30;;;24.10;39.00;;;;;;20738;6840;117227;-85
2022/07/27 04:21:56;;;;;;;2.60;2.50;;;24.00;38.90;;;;;;20731;6840;117915;-87
2022/07/27 04:24:21;;;;;;;2.30;2.20;;;23.90;39.20;;;;;;20740;6840;117202;-88
2022/07/27 04:26:47;;;;;;;2.40;2.20;;;23.70;39.40;;;;;;20506;6840;282722;-85
2022/07/27 04:29:13;;;;;;;2.67;2.20;;;24.40;38.70;;;;;;20527;6840;342204;-84
2022/07/27 04:31:39;;;;;;;2.57;2.37;;;24.40;38.70;;;;;;20521;6840;310625;-85
2022/07/27 04:34:04;;;;;;;2.92;2.60;;;24.80;38.30;;;;;;20551;6840;291465;-89
2022/07/27 04:36:30;;;;;;;2.60;2.40;;;25.00;37.80;;;;;;20806;6840;116273;-85
2022/07/27 04:38:56;;;;;;;2.20;2.10;;;24.80;38.00;;;;;;20727;6840;117258;-85
2022/07/27 04:41:21;;;;;;;2.50;2.30;;;24.40;38.30;;;;;;20534;6840;278984;-85
2022/07/27 04:43:47;;;;;;;3.62;2.30;;;24.50;38.50;;;;;;20529;6840;345394;-90
2022/07/27 04:46:13;;;;;;;5.03;2.20;;;24.80;38.20;;;;;;20747;6840;117498;-85
2022/07/27 04:48:38;;;;;;;2.13;2.03;;;24.70;38.20;;;;;;20731;6840;117349;-86
2022/07/27 04:51:03;;;;;;;2.60;2.40;;;24.50;38.50;;;;;;20523;6840;278323;-88
2022/07/27 04:53:29;;;;;;;2.70;2.40;;;24.70;38.40;;;;;;20556;6840;312197;-85
2022/07/27 04:55:55;;;;;;;2.53;2.33;;;25.40;37.70;;;;;;20543;6840;316354;-90
2022/07/27 04:58:21;;;;;;;3.80;2.53;;;25.30;37.70;;;;;;20735;6840;117261;-84
2022/07/27 05:00:47;;;;;;;2.85;2.55;;;25.20;37.80;;;;;;20509;6840;321198;-83
2022/07/27 05:03:12;;;;;;;2.87;2.67;;;25.30;37.90;;;;;;20522;6838;308155;-83
2022/07/27 05:05:38;;;;;;;2.75;2.55;;;25.50;37.60;;;;;;20527;6839;312375;-83
2022/07/27 05:08:03;;;;;;;3.47;2.47;;;25.60;37.30;;;;;;20725;6840;117655;-83
2022/07/27 05:10:29;;;;;;;4.63;2.63;;;25.40;37.50;;;;;;20521;6840;297927;-84
2022/07/27 05:12:54;;;;;;;2.73;2.53;;;25.50;37.80;;;;;;20708;6840;149111;-83
2022/07/27 05:15:20;;;;;;;2.70;2.50;;;25.30;38.10;;;;;;20515;6840;308096;-83
2022/07/27 05:17:46;;;;;;;3.00;2.27;;;25.30;38.20;;;;;;20732;6840;117175;-84
2022/07/27 05:20:11;;;;;;;3.10;2.80;;;25.20;38.30;;;;;;20743;6840;117401;-84
2022/07/27 05:22:37;;;;;;;2.75;2.55;;;25.00;38.70;;;;;;20513;6840;310332;-85
2022/07/27 05:25:02;;;;;;;3.33;2.70;;;25.20;38.80;;;;;;20714;6840;121636;-85
2022/07/27 05:27:28;;;;;;;2.90;2.70;;;25.10;38.70;;;;;;20735;6840;117677;-85
2022/07/27 05:29:54;;;;;;;2.47;2.33;;;25.00;39.00;;;;;;20735;6840;117272;-86
2022/07/27 05:32:19;;;;;;;2.80;2.60;;;24.80;39.20;;;;;;20541;6840;280152;-88
2022/07/27 05:34:46;;;;;;;3.07;2.60;;;25.00;39.00;;;;;;20755;6840;116717;-88
2022/07/27 05:37:11;;;;;;;2.43;2.33;;;25.10;39.10;;;;;;20764;6840;117902;-87
2022/07/27 05:39:37;;;;;;;2.80;2.60;;;25.00;39.20;;;;;;20756;6840;117150;-85
2022/07/27 05:42:03;;;;;;;2.58;2.30;;;24.80;39.40;;;;;;20577;6840;278066;-87
2022/07/27 05:44:28;;;;;;;2.77;2.53;;;25.00;39.20;;;;;;20786;6840;116374;-89
2022/07/27 05:46:57;;;;;;;2.78;2.58;;;25.10;39.10;;;;;;20760;6840;117904;-86
2022/07/27 05:49:24;;;;;;;3.00;2.80;;;24.90;39.30;;;;;;20565;6840;325923;-88
2022/07/27 05:51:49;;;;;;;3.43;3.17;;;25.20;39.10;;;;;;20771;6840;121518;-87
2022/07/27 05:54:15;;;;;;;3.20;2.70;;;25.30;39.00;;;;;;20578;6840;306913;-91
2022/07/27 05:56:40;;;;;;;3.77;2.93;;;25.50;38.60;;;;;;20557;6840;297065;-85
2022/07/27 05:59:06;;;;;;;4.03;3.07;;;25.80;38.20;;;;;;20761;6840;116917;-87
2022/07/27 06:01:33;;;;;;;2.83;2.63;;;25.80;38.00;;;;;;20785;6840;117962;-86
2022/07/27 06:03:58;;;;;;;3.40;3.00;;;25.50;38.30;;;;;;20532;6840;296956;-86
2022/07/27 06:09:11;;;;;;;3.15;2.85;;;25.60;38.30;;;;;;20552;6840;313159;-85
2022/07/27 06:11:36;;;;;;;2.90;2.70;;;25.80;38.20;;;;;;20567;6840;279095;-86
2022/07/27 06:14:02;;;;;;;3.27;2.63;;;26.10;37.80;;;;;;20764;6840;117308;-84
2022/07/27 06:16:28;;;;;;;2.40;2.30;;;26.20;37.80;;;;;;20776;6838;119285;-87
2022/07/27 06:18:53;;;;;;;3.47;3.00;;;26.00;38.00;;;;;;20748;6840;117103;-85
2022/07/27 06:21:19;;;;;;;3.37;2.60;;;25.90;38.20;;;;;;20756;6840;117310;-86
2022/07/27 06:23:47;;;;;;;3.50;2.90;;;25.80;38.40;;;;;;20768;6840;117136;-85
2022/07/27 06:26:10;;;;;;;2.87;2.33;;;25.80;38.50;;;;;;20738;6840;117261;-86
2022/07/27 06:28:35;;;;;;;4.77;2.90;;;25.80;38.60;;;;;;20556;6840;282725;-85
2022/07/27 06:31:01;;;;;;;3.57;3.10;;;26.30;37.80;;;;;;20530;6840;306649;-87
2022/07/27 06:33:27;;;;;;;3.00;2.80;;;26.80;37.10;;;;;;20583;6840;337787;-86
2022/07/27 06:35:54;;;;;;;3.80;2.80;;;27.20;36.50;;;;;;20774;6840;117711;-86
2022/07/27 06:38:21;;;;;;;3.45;3.15;;;27.10;36.40;;;;;;20544;6840;308181;-84
2022/07/27 06:40:51;;;;;;;2.97;2.77;;;27.30;36.20;;;;;;20730;6840;117250;-87
2022/07/27 06:43:12;;;;;;;3.15;2.85;;;27.20;36.20;;;;;;20520;6840;279001;-85
2022/07/27 06:45:38;;;;;;;3.20;2.80;;;27.20;36.00;;;;;;20747;6840;116376;-86
2022/07/27 06:48:04;;;;;;;3.10;2.80;;;27.00;36.20;;;;;;20541;6840;278655;-85
2022/07/27 06:50:30;;;;;;;2.77;2.67;;;27.30;36.50;;;;;;20740;6840;117632;-86
2022/07/27 06:52:56;;;;;;;3.40;3.00;;;27.20;36.50;;;;;;20513;6840;338069;-85
2022/07/27 06:55:21;;;;;;;2.93;2.73;;;27.80;35.90;;;;;;20534;6840;277684;-85
2022/07/27 06:57:47;;;;;;;2.60;2.40;;;28.50;34.70;;;;;;20543;6840;336724;-87
2022/07/27 07:00:13;;;;;;;2.78;2.58;;;29.00;33.80;;;;;;20543;6840;300707;-85
2022/07/27 07:02:39;;;;;;;3.00;2.73;;;29.30;33.20;;;;;;20753;6840;117542;-86
2022/07/27 07:05:04;;;;;;;2.95;2.75;;;29.30;33.50;;;;;;20462;6840;310365;-87
2022/07/27 07:07:30;;;;;;;2.70;2.60;;;29.50;33.00;;;;;;20733;6840;117462;-85
2022/07/27 07:09:55;;;;;;;2.43;2.33;;;29.40;33.30;;;;;;20747;6840;117186;-85
2022/07/27 07:12:21;;;;;;;3.22;2.92;;;29.40;33.70;;;;;;20740;6840;117724;-86
2022/07/27 07:14:46;;;;;;;4.25;3.28;;;29.40;33.90;;;;;;20515;6840;316457;-91
2022/07/27 07:17:13;;;;;;;3.07;2.87;;;29.80;33.40;;;;;;20742;6840;120729;-88
2022/07/27 07:19:38;;;;;;;2.97;2.77;;;29.80;33.30;;;;;;20744;6840;117324;-85
2022/07/27 07:22:04;;;;;;;3.10;2.80;;;29.70;33.00;;;;;;20748;6840;121033;-85
2022/07/27 07:24:29;;;;;;;3.00;2.80;;;29.40;33.20;;;;;;20541;6840;278267;-86
2022/07/27 07:26:55;;;;;;;2.70;2.60;;;29.50;32.90;;;;;;20510;6838;308960;-88
2022/07/27 07:29:21;;;;;;;4.30;2.80;;;30.00;32.30;;;;;;20508;6839;308109;-86
2022/07/27 07:31:47;;;;;;;3.30;3.00;;;30.00;32.30;;;;;;20739;6840;117331;-85
2022/07/27 07:34:12;;;;;;;3.13;2.70;;;29.80;32.40;;;;;;20730;6840;117265;-86
2022/07/27 07:36:38;;;;;;;3.20;3.00;;;29.50;32.90;;;;;;20738;6840;117195;-85
2022/07/27 07:39:03;;;;;;;3.70;3.40;;;29.30;33.20;;;;;;20705;6840;117310;-87
2022/07/27 07:41:29;;;;;;;2.83;2.63;;;29.00;33.40;;;;;;20729;6840;122206;-86
2022/07/27 07:43:55;;;;;;;4.00;3.70;;;28.80;33.70;;;;;;20724;6840;117561;-86
2022/07/27 07:46:20;;;;;;;3.20;3.00;;;28.80;34.00;;;;;;20527;6840;309179;-85
2022/07/27 07:48:46;;;;;;;2.97;2.77;;;29.00;33.60;;;;;;20523;6840;278301;-85
2022/07/27 07:51:11;;;;;;;3.08;2.87;;;29.30;33.20;;;;;;20530;6840;312710;-85
2022/07/27 07:53:37;;;;;;;3.13;2.80;;;29.50;32.80;;;;;;20741;6840;117762;-88
2022/07/27 07:56:03;;;;;;;3.30;3.10;;;29.50;32.80;;;;;;20524;6840;307645;-86
2022/07/27 07:58:30;;;;;;;3.10;2.80;;;29.60;32.80;;;;;;20730;6840;116547;-88
2022/07/27 08:00:54;;;;;;;3.42;3.22;;;29.60;32.80;;;;;;20505;6840;308350;-85
2022/07/27 08:03:20;;;;;;;3.00;2.80;;;29.70;32.40;;;;;;20741;6840;117928;-85
2022/07/27 08:05:46;;;;;;;3.80;3.42;;;29.60;32.50;;;;;;20527;6840;308896;-86
2022/07/27 08:08:12;;;;;;;3.47;3.17;;;29.60;32.30;;;;;;20732;6840;117211;-85
2022/07/27 08:10:37;;;;;;;2.73;2.53;;;29.50;32.50;;;;;;20738;6840;117568;-88
2022/07/27 08:13:03;;;;;;;3.40;3.03;;;29.40;32.90;;;;;;20516;6840;279006;-88
2022/07/27 08:15:29;;;;;;;5.13;3.80;;;29.60;32.50;;;;;;20520;6840;311814;-85
2022/07/27 08:17:58;;;;;;;3.37;2.90;;;29.90;32.40;;;;;;20731;6840;117624;-86
2022/07/27 08:20:27;;;;;;;3.97;2.80;;;29.70;32.50;;;;;;20727;6840;117732;-88
2022/07/27 08:22:50;;;;;;;4.37;2.63;;;29.50;32.80;;;;;;20708;6840;117857;-87
2022/07/27 08:25:17;;;;;;;3.35;3.05;;;29.50;33.10;;;;;;20530;6840;307985;-85
2022/07/27 08:27:42;;;;;;;3.87;3.53;;;29.70;32.70;;;;;;20743;6840;121056;-87
2022/07/27 08:30:08;;;;;;;3.10;2.40;;;29.80;32.60;;;;;;20781;6840;117138;-89
2022/07/27 08:32:33;;;;;;;2.90;2.80;;;29.80;32.60;;;;;;20783;6840;70913;-87
2022/07/27 08:34:59;;;;;;;5.47;3.53;;;29.70;32.80;;;;;;20673;6840;117941;-86
2022/07/27 08:37:26;;;;;;;3.40;3.20;;;29.60;32.70;;;;;;20528;6840;311906;-88
2022/07/27 08:39:52;;;;;;;3.40;3.20;;;29.80;32.50;;;;;;20550;6838;279467;-87
2022/07/27 08:42:17;;;;;;;4.28;3.87;;;30.20;31.80;;;;;;20533;6840;308661;-86
2022/07/27 08:44:45;;;;;;;3.43;3.00;;;30.50;32.10;;;;;;20528;6840;308455;-89
2022/07/27 08:47:10;;;;;;;6.67;3.50;;;30.90;31.30;;;;;;20721;6840;117748;-87
2022/07/27 08:49:40;;;;;;;4.20;3.90;;;30.80;31.20;;;;;;20716;6840;121470;-86
2022/07/27 08:52:04;;;;;;;5.10;3.90;;;30.50;31.50;;;;;;20734;6840;118035;-85
2022/07/27 08:54:30;;;;;;;3.17;2.80;;;30.30;31.60;;;;;;20733;6840;117599;-86
2022/07/27 08:56:55;;;;;;;2.80;2.70;;;30.20;31.80;;;;;;20721;6840;117802;-90
2022/07/27 08:59:21;;;;;;;3.03;2.90;;;30.00;32.00;;;;;;20743;6840;117434;-90
2022/07/27 09:01:47;;;;;;;5.00;3.57;;;30.00;32.00;;;;;;20749;6840;117698;-85
2022/07/27 09:04:13;;;;;;;4.30;4.00;;;29.80;32.40;;;;;;20740;6840;117251;-85
2022/07/27 09:06:42;;;;;;;5.53;3.60;;;29.80;32.40;;;;;;20739;6840;117980;-86
2022/07/27 09:09:08;;;;;;;5.40;4.37;;;29.60;32.60;;;;;;20487;6839;281838;-85
2022/07/27 09:11:36;;;;;;;3.33;3.08;;;29.90;31.90;;;;;;20527;6839;278888;-85
2022/07/27 09:14:00;;;;;;;3.67;3.47;;;30.20;31.80;;;;;;20510;6839;309219;-89
2022/07/27 09:16:26;;;;;;;5.15;3.65;;;30.50;31.60;;;;;;20735;6839;118174;-86
2022/07/27 09:18:59;;;;;;;4.87;3.37;;;30.40;31.50;;;;;;20708;6839;119716;-85
2022/07/27 09:21:27;;;;;;;4.57;4.10;;;29.80;32.50;;;;;;20709;6839;121363;-86
2022/07/27 09:23:55;;;;;;;4.40;4.10;;;29.70;32.40;;;;;;20517;6839;308153;-87
2022/07/27 09:26:20;;;;;;;3.70;3.40;;;29.90;32.40;;;;;;20489;6839;308560;-89
2022/07/27 09:28:46;;;;;;;4.20;3.70;;;30.10;32.10;;;;;;20498;6839;308503;-86
2022/07/27 09:31:11;;;;;;;4.23;3.93;;;30.40;31.60;;;;;;20533;6839;278874;-88
2022/07/27 09:33:43;;;;;;;3.83;3.53;;;30.70;31.70;;;;;;20517;6839;277984;-88
2022/07/27 09:36:09;;;;;;;4.87;4.05;;;31.00;31.00;;;;;;20519;6839;313132;-89
2022/07/27 09:38:34;;;;;;;5.07;3.00;;;31.30;30.50;;;;;;20736;6839;117400;-86
2022/07/27 09:41:00;;;;;;;3.30;3.10;;;31.20;30.70;;;;;;20513;6839;308547;-87
2022/07/27 09:43:27;;;;;;;5.23;3.10;;;31.40;30.80;;;;;;20743;6839;117476;-86
2022/07/27 09:45:52;;;;;;;4.68;3.50;;;31.50;30.80;;;;;;20525;6839;308392;-86
2022/07/27 09:48:17;;;;;;;3.93;3.63;;;31.80;30.60;;;;;;20739;6839;117202;-86
2022/07/27 09:50:43;;;;;;;3.80;3.60;;;31.80;30.40;;;;;;20735;6837;117665;-86
2022/07/27 09:53:18;;;;;;;4.93;4.37;;;31.80;30.40;;;;;;20452;6839;308843;-86
2022/07/27 09:55:57;;;;;;;4.37;3.93;;;31.90;29.90;;;;;;20684;6839;118135;-88
2022/07/27 09:58:20;;;;;;;6.03;4.27;;;31.80;29.90;;;;;;20720;6839;66429;-90
2022/07/27 10:00:56;;;;;;;3.83;3.53;;;31.50;30.00;;;;;;20676;6839;121424;-86
2022/07/27 10:03:21;;;;;;;4.70;4.30;;;31.20;30.30;;;;;;20520;6839;278886;-90
2022/07/27 10:05:46;;;;;;;5.00;4.50;;;31.30;30.40;;;;;;20523;6839;310126;-86
2022/07/27 10:08:12;;;;;;;3.93;3.53;;;31.50;30.60;;;;;;20519;6839;281640;-89
2022/07/27 10:10:37;;;;;;;4.00;3.60;;;31.50;30.30;;;;;;20543;6839;278012;-90
2022/07/27 10:13:04;;;;;;;4.17;3.60;;;31.70;30.20;;;;;;20514;6839;278527;-87
2022/07/27 10:15:30;;;;;;;9.03;3.93;;;31.70;30.10;;;;;;20739;6839;118782;-88
2022/07/27 10:17:56;;;;;;;5.07;4.60;;;31.50;29.90;;;;;;20543;6839;278067;-87
2022/07/27 10:20:21;;;;;;;4.23;3.83;;;31.40;29.90;;;;;;20720;6839;119331;-87
2022/07/27 10:22:47;;;;;;;5.65;3.40;;;31.20;30.30;;;;;;20532;6839;288764;-87
2022/07/27 10:25:13;;;;;;;3.75;3.40;;;31.40;30.60;;;;;;20531;6839;308918;-89
2022/07/27 10:27:39;;;;;;;4.10;3.60;;;31.40;30.60;;;;;;20782;6839;117253;-90
2022/07/27 10:30:06;;;;;;;7.65;3.70;;;31.20;30.30;;;;;;20774;6839;117695;-90
2022/07/27 10:32:31;;;;;;;4.00;3.80;;;31.10;30.30;;;;;;20543;6839;288639;-87
2022/07/27 10:34:57;;;;;;;4.20;3.80;;;31.00;30.20;;;;;;20720;6839;147292;-88
2022/07/27 10:37:29;;;;;;;4.37;4.00;;;31.00;30.30;;;;;;20507;6839;279034;-90
2022/07/27 10:42:40;;;;;;;4.33;3.90;;;31.30;30.30;;;;;;20534;6839;278529;-88
2022/07/27 10:45:09;;;;;;;4.60;4.20;;;31.30;30.00;;;;;;20729;6839;117397;-88
2022/07/27 10:47:37;;;;;;;4.70;4.30;;;31.20;30.10;;;;;;20544;6839;305304;-87
2022/07/27 10:50:16;;;;;;;4.73;3.97;;;31.10;30.30;;;;;;20645;6839;122082;-89
2022/07/27 10:52:41;;;;;;;5.23;3.40;;;30.80;30.40;;;;;;20754;6839;116322;-88
2022/07/27 10:55:07;;;;;;;4.60;3.50;;;30.70;30.70;;;;;;20502;6839;308417;-89
2022/07/27 10:57:34;;;;;;;4.30;4.00;;;30.80;31.20;;;;;;20745;6839;117802;-88
2022/07/27 11:00:04;;;;;;;3.90;3.60;;;30.80;30.80;;;;;;20721;6839;117514;-88
2022/07/27 11:02:37;;;;;;;5.35;3.60;;;30.80;31.00;;;;;;20723;6837;117716;-87
2022/07/27 11:05:04;;;;;;;4.30;3.97;;;30.70;31.00;;;;;;20471;6839;314360;-87
2022/07/27 11:07:30;;;;;;;3.90;3.60;;;31.00;30.60;;;;;;20703;6839;119625;-86
2022/07/27 11:09:58;;;;;;;3.60;3.30;;;31.00;30.40;;;;;;20522;6839;307520;-86
2022/07/27 11:12:24;;;;;;;3.33;3.07;;;31.20;30.20;;;;;;20739;6839;117111;-86
2022/07/27 11:14:49;;;;;;;4.43;3.60;;;31.40;30.70;;;;;;20500;6839;277846;-86
2022/07/27 11:17:15;;;;;;;4.00;3.47;;;31.60;30.20;;;;;;20729;6839;117676;-86
2022/07/27 11:19:42;;;;;;;3.50;3.20;;;31.50;30.00;;;;;;20741;6839;121020;-86
2022/07/27 11:22:09;;;;;;;3.67;3.37;;;31.20;30.10;;;;;;20515;6839;308232;-86
2022/07/27 11:24:38;;;;;;;3.50;3.30;;;31.10;30.00;;;;;;20727;6839;118488;-86
2022/07/27 11:27:03;;;;;;;4.00;3.23;;;31.00;30.20;;;;;;20503;6839;280296;-85
2022/07/27 11:29:29;;;;;;;5.20;3.30;;;30.90;30.30;;;;;;20524;6839;296170;-87
2022/07/27 11:31:56;;;;;;;4.90;3.40;;;31.10;30.30;;;;;;20524;6839;278482;-86
2022/07/27 11:34:30;;;;;;;3.85;3.55;;;31.20;30.00;;;;;;20518;6839;308150;-86
2022/07/27 11:37:00;;;;;;;3.83;3.33;;;31.30;30.00;;;;;;20704;6839;128215;-88
2022/07/27 11:39:23;;;;;;;3.10;2.90;;;31.10;29.60;;;;;;20508;6839;295806;-88
2022/07/27 11:41:47;;;;;;;3.37;3.08;;;31.10;29.80;;;;;;20513;6839;340649;-86
2022/07/27 11:44:12;;;;;;;3.20;2.70;;;31.30;29.20;;;;;;20742;6839;117267;-87
2022/07/27 11:46:41;;;;;;;3.17;2.87;;;31.20;29.30;;;;;;20530;6839;278199;-88
2022/07/27 11:49:31;;;;;;;2.80;2.60;;;31.20;29.30;;;;;;20515;6839;308073;-89
2022/07/27 11:52:03;;;;;;;3.27;2.47;;;31.40;28.70;;;;;;20520;6839;308603;-88
2022/07/27 11:54:35;;;;;;;6.93;2.60;;;31.60;28.70;;;;;;20710;6839;121616;-88
2022/07/27 11:57:14;;;;;;;3.30;3.00;;;31.40;28.90;;;;;;20719;6839;118308;-88
2022/07/27 11:59:38;;;;;;;3.05;2.80;;;31.20;29.10;;;;;;20527;6839;344963;-87
2022/07/27 12:02:07;;;;;;;3.25;2.90;;;31.20;29.30;;;;;;20520;6839;293457;-87
2022/07/27 12:04:32;;;;;;;4.30;3.40;;;31.40;28.90;;;;;;20716;6839;118086;-86
2022/07/27 12:07:04;;;;;;;3.25;3.05;;;31.20;28.80;;;;;;20490;6839;278447;-87
2022/07/27 12:09:30;;;;;;;2.97;2.78;;;31.10;28.80;;;;;;20518;6839;300951;-86
2022/07/27 12:12:06;;;;;;;3.50;2.87;;;31.10;29.10;;;;;;20723;6839;117224;-89
2022/07/27 12:14:35;;;;;;;3.40;3.10;;;30.90;29.30;;;;;;20519;6838;282845;-87
2022/07/27 12:17:17;;;;;;;3.22;2.90;;;30.90;29.50;;;;;;20505;6839;337976;-87
2022/07/27 12:20:06;;;;;;;2.90;2.70;;;30.60;29.10;;;;;;20710;6839;117145;-88
2022/07/27 12:22:39;;;;;;;5.03;2.80;;;30.60;29.00;;;;;;20519;6839;337271;-86
2022/07/27 12:25:15;;;;;;;2.87;2.67;;;30.50;29.20;;;;;;20744;6839;117116;-88
2022/07/27 12:27:40;;;;;;;2.57;2.47;;;30.20;29.30;;;;;;20764;6839;121073;-87
2022/07/27 12:30:09;;;;;;;2.67;2.47;;;29.90;29.50;;;;;;20693;6839;117165;-88
2022/07/27 12:32:41;;;;;;;2.90;2.70;;;29.80;29.50;;;;;;20530;6839;283262;-86
2022/07/27 12:35:19;;;;;;;3.47;3.07;;;30.00;29.30;;;;;;20695;6839;117199;-88
2022/07/27 12:37:45;;;;;;;3.70;2.60;;;30.10;29.40;;;;;;20509;6839;308235;-87
2022/07/27 12:40:14;;;;;;;3.43;3.17;;;30.30;29.90;;;;;;20740;6839;117759;-84